sensor_id;sensor_type;location;lat;lon;timestamp;temperature;humidity
11615;DHT22;5863;52.832;4.758;2023-05-01T00:02:09;10.40;99.90
11615;DHT22;5863;52.832;4.758;2023-05-01T00:04:36;10.30;99.90
11615;DHT22;5863;52.832;4.758;2023-05-01T00:07:02;10.30;99.90
11615;DHT22;5863;52.832;4.758;2023-05-01T00:09:30;10.30;99.90
11615;DHT22;5863;52.832;4.758;2023-05-01T00:11:57;10.30;99.90
11615;DHT22;5863;52.832;4.758;2023-05-01T00:14:24;10.30;99.90
11615;DHT22;5863;52.832;4.758;2023-05-01T00:16:50;10.30;99.90
11615;DHT22;5863;52.832;4.758;2023-05-01T00:19:17;10.30;99.90
11615;DHT22;5863;52.832;4.758;2023-05-01T00:21:44;10.30;99.90
11615;DHT22;5863;52.832;4.758;2023-05-01T00:24:12;10.30;99.90
11615;DHT22;5863;52.832;4.758;2023-05-01T00:26:40;10.30;99.90
11615;DHT22;5863;52.832;4.758;2023-05-01T00:29:07;10.30;99.90
11615;DHT22;5863;52.832;4.758;2023-05-01T00:31:34;10.30;99.90
11615;DHT22;5863;52.832;4.758;2023-05-01T00:34:00;10.30;99.90
11615;DHT22;5863;52.832;4.758;2023-05-01T00:36:28;10.30;99.90
11615;DHT22;5863;52.832;4.758;2023-05-01T00:38:56;10.30;99.90
11615;DHT22;5863;52.832;4.758;2023-05-01T00:41:22;10.20;99.90
11615;DHT22;5863;52.832;4.758;2023-05-01T00:43:52;10.20;99.90
11615;DHT22;5863;52.832;4.758;2023-05-01T00:46:19;10.20;99.90
11615;DHT22;5863;52.832;4.758;2023-05-01T00:48:46;10.20;99.90
11615;DHT22;5863;52.832;4.758;2023-05-01T00:51:12;10.20;99.90
11615;DHT22;5863;52.832;4.758;2023-05-01T00:53:42;10.10;99.90
11615;DHT22;5863;52.832;4.758;2023-05-01T00:56:09;10.10;99.90
11615;DHT22;5863;52.832;4.758;2023-05-01T00:58:37;10.10;99.90
11615;DHT22;5863;52.832;4.758;2023-05-01T01:01:05;10.10;99.90
11615;DHT22;5863;52.832;4.758;2023-05-01T01:03:33;10.20;99.90
11615;DHT22;5863;52.832;4.758;2023-05-01T01:06:06;10.20;99.90
11615;DHT22;5863;52.832;4.758;2023-05-01T01:08:38;10.20;99.90
11615;DHT22;5863;52.832;4.758;2023-05-01T01:11:13;10.20;99.90
11615;DHT22;5863;52.832;4.758;2023-05-01T01:13:45;10.10;99.90
11615;DHT22;5863;52.832;4.758;2023-05-01T01:16:20;10.10;99.90
11615;DHT22;5863;52.832;4.758;2023-05-01T01:18:53;10.10;99.90
11615;DHT22;5863;52.832;4.758;2023-05-01T01:21:26;10.10;99.90
11615;DHT22;5863;52.832;4.758;2023-05-01T01:24:24;10.10;99.90
11615;DHT22;5863;52.832;4.758;2023-05-01T01:27:25;10.10;99.90
11615;DHT22;5863;52.832;4.758;2023-05-01T01:30:14;10.10;99.90
11615;DHT22;5863;52.832;4.758;2023-05-01T01:32:55;10.10;99.90
11615;DHT22;5863;52.832;4.758;2023-05-01T01:35:27;10.10;99.90
11615;DHT22;5863;52.832;4.758;2023-05-01T01:38:00;10.10;99.90
11615;DHT22;5863;52.832;4.758;2023-05-01T01:40:34;10.10;99.90
11615;DHT22;5863;52.832;4.758;2023-05-01T01:43:04;10.10;99.90
11615;DHT22;5863;52.832;4.758;2023-05-01T01:45:36;10.10;99.90
11615;DHT22;5863;52.832;4.758;2023-05-01T01:48:04;10.10;99.90
11615;DHT22;5863;52.832;4.758;2023-05-01T01:50:34;10.10;99.90
11615;DHT22;5863;52.832;4.758;2023-05-01T01:53:03;10.10;99.90
11615;DHT22;5863;52.832;4.758;2023-05-01T01:55:32;10.10;99.90
11615;DHT22;5863;52.832;4.758;2023-05-01T01:58:00;10.10;99.90
11615;DHT22;5863;52.832;4.758;2023-05-01T02:00:28;10.10;99.90
11615;DHT22;5863;52.832;4.758;2023-05-01T02:02:58;10.10;99.90
11615;DHT22;5863;52.832;4.758;2023-05-01T02:05:25;10.10;99.90
11615;DHT22;5863;52.832;4.758;2023-05-01T02:07:55;10.10;99.90
11615;DHT22;5863;52.832;4.758;2023-05-01T02:10:23;10.10;99.90
11615;DHT22;5863;52.832;4.758;2023-05-01T02:12:52;10.00;99.90
11615;DHT22;5863;52.832;4.758;2023-05-01T02:15:20;10.00;99.90
11615;DHT22;5863;52.832;4.758;2023-05-01T02:17:49;10.00;99.90
11615;DHT22;5863;52.832;4.758;2023-05-01T02:20:17;10.00;99.90
11615;DHT22;5863;52.832;4.758;2023-05-01T02:22:45;10.00;99.90
11615;DHT22;5863;52.832;4.758;2023-05-01T02:25:14;10.00;99.90
11615;DHT22;5863;52.832;4.758;2023-05-01T02:27:45;9.90;99.90
11615;DHT22;5863;52.832;4.758;2023-05-01T02:30:12;9.90;99.90
11615;DHT22;5863;52.832;4.758;2023-05-01T02:32:39;9.90;99.90
11615;DHT22;5863;52.832;4.758;2023-05-01T02:35:06;9.90;99.90
11615;DHT22;5863;52.832;4.758;2023-05-01T02:37:33;9.80;99.90
11615;DHT22;5863;52.832;4.758;2023-05-01T02:40:01;9.80;99.90
11615;DHT22;5863;52.832;4.758;2023-05-01T02:42:31;9.80;99.90
11615;DHT22;5863;52.832;4.758;2023-05-01T02:45:01;9.80;99.90
11615;DHT22;5863;52.832;4.758;2023-05-01T02:47:31;9.70;99.90
11615;DHT22;5863;52.832;4.758;2023-05-01T02:49:59;9.70;99.90
11615;DHT22;5863;52.832;4.758;2023-05-01T02:52:28;9.70;99.90
11615;DHT22;5863;52.832;4.758;2023-05-01T02:54:55;9.70;99.90
11615;DHT22;5863;52.832;4.758;2023-05-01T02:57:22;9.70;99.90
11615;DHT22;5863;52.832;4.758;2023-05-01T02:59:51;9.70;99.90
11615;DHT22;5863;52.832;4.758;2023-05-01T03:02:17;9.60;99.90
11615;DHT22;5863;52.832;4.758;2023-05-01T03:04:44;9.60;99.90
11615;DHT22;5863;52.832;4.758;2023-05-01T03:07:11;9.60;99.90
11615;DHT22;5863;52.832;4.758;2023-05-01T03:09:38;9.50;99.90
11615;DHT22;5863;52.832;4.758;2023-05-01T03:12:04;9.60;99.90
11615;DHT22;5863;52.832;4.758;2023-05-01T03:14:31;9.50;99.90
11615;DHT22;5863;52.832;4.758;2023-05-01T03:16:59;9.50;99.90
11615;DHT22;5863;52.832;4.758;2023-05-01T03:19:26;9.50;99.90
11615;DHT22;5863;52.832;4.758;2023-05-01T03:21:53;9.50;99.90
11615;DHT22;5863;52.832;4.758;2023-05-01T03:24:19;9.50;99.90
11615;DHT22;5863;52.832;4.758;2023-05-01T03:26:46;9.50;99.90
11615;DHT22;5863;52.832;4.758;2023-05-01T03:29:13;9.50;99.90
11615;DHT22;5863;52.832;4.758;2023-05-01T03:31:39;9.40;99.90
11615;DHT22;5863;52.832;4.758;2023-05-01T03:34:07;9.40;99.90
11615;DHT22;5863;52.832;4.758;2023-05-01T03:36:35;9.40;99.90
11615;DHT22;5863;52.832;4.758;2023-05-01T03:39:01;9.50;99.90
11615;DHT22;5863;52.832;4.758;2023-05-01T03:41:29;9.50;99.90
11615;DHT22;5863;52.832;4.758;2023-05-01T03:43:55;9.50;99.90
11615;DHT22;5863;52.832;4.758;2023-05-01T03:46:22;9.50;99.90
11615;DHT22;5863;52.832;4.758;2023-05-01T03:48:49;9.40;99.90
11615;DHT22;5863;52.832;4.758;2023-05-01T03:51:17;9.40;99.90
11615;DHT22;5863;52.832;4.758;2023-05-01T03:53:43;9.40;99.90
11615;DHT22;5863;52.832;4.758;2023-05-01T03:56:10;9.40;99.90
11615;DHT22;5863;52.832;4.758;2023-05-01T03:58:37;9.40;99.90
11615;DHT22;5863;52.832;4.758;2023-05-01T04:01:03;9.40;99.90
11615;DHT22;5863;52.832;4.758;2023-05-01T04:03:30;9.30;99.90
11615;DHT22;5863;52.832;4.758;2023-05-01T04:05:57;9.30;99.90
11615;DHT22;5863;52.832;4.758;2023-05-01T04:08:25;9.30;99.90
11615;DHT22;5863;52.832;4.758;2023-05-01T04:10:52;9.30;99.90
11615;DHT22;5863;52.832;4.758;2023-05-01T04:13:18;9.20;99.90
11615;DHT22;5863;52.832;4.758;2023-05-01T04:15:45;9.20;99.90
11615;DHT22;5863;52.832;4.758;2023-05-01T04:18:12;9.10;99.90
11615;DHT22;5863;52.832;4.758;2023-05-01T04:20:39;9.10;99.90
11615;DHT22;5863;52.832;4.758;2023-05-01T04:23:06;9.10;99.90
11615;DHT22;5863;52.832;4.758;2023-05-01T04:25:35;9.10;99.90
11615;DHT22;5863;52.832;4.758;2023-05-01T04:28:02;9.00;99.90
11615;DHT22;5863;52.832;4.758;2023-05-01T04:30:29;9.10;99.90
11615;DHT22;5863;52.832;4.758;2023-05-01T04:32:56;9.10;99.90
11615;DHT22;5863;52.832;4.758;2023-05-01T04:35:23;9.10;99.90
11615;DHT22;5863;52.832;4.758;2023-05-01T04:37:50;9.10;99.90
11615;DHT22;5863;52.832;4.758;2023-05-01T04:40:16;9.10;99.90
11615;DHT22;5863;52.832;4.758;2023-05-01T04:42:44;9.20;99.90
11615;DHT22;5863;52.832;4.758;2023-05-01T04:45:11;9.30;99.90
11615;DHT22;5863;52.832;4.758;2023-05-01T04:47:38;9.30;99.90
11615;DHT22;5863;52.832;4.758;2023-05-01T04:50:05;9.40;99.90
11615;DHT22;5863;52.832;4.758;2023-05-01T04:52:32;9.40;99.90
11615;DHT22;5863;52.832;4.758;2023-05-01T04:55:00;9.50;99.90
11615;DHT22;5863;52.832;4.758;2023-05-01T04:57:26;9.60;99.90
11615;DHT22;5863;52.832;4.758;2023-05-01T04:59:54;9.70;99.90
11615;DHT22;5863;52.832;4.758;2023-05-01T05:02:21;9.80;99.90
11615;DHT22;5863;52.832;4.758;2023-05-01T05:04:48;9.80;99.90
11615;DHT22;5863;52.832;4.758;2023-05-01T05:07:15;10.10;99.90
11615;DHT22;5863;52.832;4.758;2023-05-01T05:09:43;10.40;99.90
11615;DHT22;5863;52.832;4.758;2023-05-01T05:12:09;10.50;99.90
11615;DHT22;5863;52.832;4.758;2023-05-01T05:14:36;10.60;99.90
11615;DHT22;5863;52.832;4.758;2023-05-01T05:17:04;10.60;99.90
11615;DHT22;5863;52.832;4.758;2023-05-01T05:19:31;10.60;99.90
11615;DHT22;5863;52.832;4.758;2023-05-01T05:21:57;10.60;99.90
11615;DHT22;5863;52.832;4.758;2023-05-01T05:24:24;10.60;99.90
11615;DHT22;5863;52.832;4.758;2023-05-01T05:26:51;10.60;99.90
11615;DHT22;5863;52.832;4.758;2023-05-01T05:29:19;10.60;99.90
11615;DHT22;5863;52.832;4.758;2023-05-01T05:31:46;10.70;99.90
11615;DHT22;5863;52.832;4.758;2023-05-01T05:34:14;10.80;99.90
11615;DHT22;5863;52.832;4.758;2023-05-01T05:36:41;10.90;99.90
11615;DHT22;5863;52.832;4.758;2023-05-01T05:39:07;11.10;99.90
11615;DHT22;5863;52.832;4.758;2023-05-01T05:41:34;11.30;99.90
11615;DHT22;5863;52.832;4.758;2023-05-01T05:44:00;11.50;99.90
11615;DHT22;5863;52.832;4.758;2023-05-01T05:46:27;11.80;99.90
11615;DHT22;5863;52.832;4.758;2023-05-01T05:48:54;12.00;99.90
11615;DHT22;5863;52.832;4.758;2023-05-01T05:51:22;12.40;99.90
11615;DHT22;5863;52.832;4.758;2023-05-01T05:53:48;12.70;99.90
11615;DHT22;5863;52.832;4.758;2023-05-01T05:56:15;13.00;99.90
11615;DHT22;5863;52.832;4.758;2023-05-01T05:58:43;13.30;99.90
11615;DHT22;5863;52.832;4.758;2023-05-01T06:01:10;13.60;99.90
11615;DHT22;5863;52.832;4.758;2023-05-01T06:03:37;13.90;99.90
11615;DHT22;5863;52.832;4.758;2023-05-01T06:06:04;14.20;99.90
11615;DHT22;5863;52.832;4.758;2023-05-01T06:08:32;14.40;99.90
11615;DHT22;5863;52.832;4.758;2023-05-01T06:10:59;14.50;99.90
11615;DHT22;5863;52.832;4.758;2023-05-01T06:13:26;14.60;99.90
11615;DHT22;5863;52.832;4.758;2023-05-01T06:15:53;14.70;99.90
11615;DHT22;5863;52.832;4.758;2023-05-01T06:18:21;15.00;99.90
11615;DHT22;5863;52.832;4.758;2023-05-01T06:20:47;15.10;99.90
11615;DHT22;5863;52.832;4.758;2023-05-01T06:23:14;15.30;99.90
11615;DHT22;5863;52.832;4.758;2023-05-01T06:25:42;15.40;99.90
11615;DHT22;5863;52.832;4.758;2023-05-01T06:28:09;15.60;99.90
11615;DHT22;5863;52.832;4.758;2023-05-01T06:30:35;15.60;99.90
11615;DHT22;5863;52.832;4.758;2023-05-01T06:33:02;15.40;99.90
11615;DHT22;5863;52.832;4.758;2023-05-01T06:35:29;15.40;99.90
11615;DHT22;5863;52.832;4.758;2023-05-01T06:37:56;15.30;99.90
11615;DHT22;5863;52.832;4.758;2023-05-01T06:40:22;15.40;99.90
11615;DHT22;5863;52.832;4.758;2023-05-01T06:42:50;15.50;99.90
11615;DHT22;5863;52.832;4.758;2023-05-01T06:45:17;15.80;99.90
11615;DHT22;5863;52.832;4.758;2023-05-01T06:47:44;16.20;99.90
11615;DHT22;5863;52.832;4.758;2023-05-01T06:50:11;16.50;99.90
11615;DHT22;5863;52.832;4.758;2023-05-01T06:52:37;16.50;99.90
11615;DHT22;5863;52.832;4.758;2023-05-01T06:55:04;16.50;99.90
11615;DHT22;5863;52.832;4.758;2023-05-01T06:57:31;16.70;99.90
11615;DHT22;5863;52.832;4.758;2023-05-01T06:59:59;16.70;99.90
11615;DHT22;5863;52.832;4.758;2023-05-01T07:02:26;16.70;99.90
11615;DHT22;5863;52.832;4.758;2023-05-01T07:04:52;16.50;99.90
11615;DHT22;5863;52.832;4.758;2023-05-01T07:07:19;16.50;99.90
11615;DHT22;5863;52.832;4.758;2023-05-01T07:09:46;16.20;99.90
11615;DHT22;5863;52.832;4.758;2023-05-01T07:12:12;15.90;99.90
11615;DHT22;5863;52.832;4.758;2023-05-01T07:14:39;15.60;99.90
11615;DHT22;5863;52.832;4.758;2023-05-01T07:17:07;15.30;99.90
11615;DHT22;5863;52.832;4.758;2023-05-01T07:19:34;15.10;99.90
11615;DHT22;5863;52.832;4.758;2023-05-01T07:22:01;14.90;99.90
11615;DHT22;5863;52.832;4.758;2023-05-01T07:24:29;14.70;99.90
11615;DHT22;5863;52.832;4.758;2023-05-01T07:26:57;14.50;99.90
11615;DHT22;5863;52.832;4.758;2023-05-01T07:29:24;14.30;99.90
11615;DHT22;5863;52.832;4.758;2023-05-01T07:31:51;14.10;99.90
11615;DHT22;5863;52.832;4.758;2023-05-01T07:34:19;14.00;99.90
11615;DHT22;5863;52.832;4.758;2023-05-01T07:36:46;13.90;99.90
11615;DHT22;5863;52.832;4.758;2023-05-01T07:39:12;13.80;99.90
11615;DHT22;5863;52.832;4.758;2023-05-01T07:41:39;13.70;99.90
11615;DHT22;5863;52.832;4.758;2023-05-01T07:44:06;13.60;99.90
11615;DHT22;5863;52.832;4.758;2023-05-01T07:46:33;13.60;99.90
11615;DHT22;5863;52.832;4.758;2023-05-01T07:49:01;13.50;99.90
11615;DHT22;5863;52.832;4.758;2023-05-01T07:51:30;13.50;99.90
11615;DHT22;5863;52.832;4.758;2023-05-01T07:53:56;13.40;99.90
11615;DHT22;5863;52.832;4.758;2023-05-01T07:56:23;13.40;99.90
11615;DHT22;5863;52.832;4.758;2023-05-01T07:58:50;13.40;99.90
11615;DHT22;5863;52.832;4.758;2023-05-01T08:01:18;13.50;99.90
11615;DHT22;5863;52.832;4.758;2023-05-01T08:03:45;13.50;99.90
11615;DHT22;5863;52.832;4.758;2023-05-01T08:06:12;13.60;99.90
11615;DHT22;5863;52.832;4.758;2023-05-01T08:08:40;13.60;99.90
11615;DHT22;5863;52.832;4.758;2023-05-01T08:11:07;13.60;99.90
11615;DHT22;5863;52.832;4.758;2023-05-01T08:13:34;13.60;99.90
11615;DHT22;5863;52.832;4.758;2023-05-01T08:16:01;13.60;99.90
11615;DHT22;5863;52.832;4.758;2023-05-01T08:18:28;13.70;99.90
11615;DHT22;5863;52.832;4.758;2023-05-01T08:20:55;13.80;99.90
11615;DHT22;5863;52.832;4.758;2023-05-01T08:23:24;13.80;99.90
11615;DHT22;5863;52.832;4.758;2023-05-01T08:25:52;13.90;99.90
11615;DHT22;5863;52.832;4.758;2023-05-01T08:28:25;13.90;99.90
11615;DHT22;5863;52.832;4.758;2023-05-01T08:30:51;13.90;99.90
11615;DHT22;5863;52.832;4.758;2023-05-01T08:33:18;13.90;99.90
11615;DHT22;5863;52.832;4.758;2023-05-01T08:35:45;14.00;99.90
11615;DHT22;5863;52.832;4.758;2023-05-01T08:38:12;14.00;99.90
11615;DHT22;5863;52.832;4.758;2023-05-01T08:40:46;14.00;99.90
11615;DHT22;5863;52.832;4.758;2023-05-01T08:43:18;13.90;99.90
11615;DHT22;5863;52.832;4.758;2023-05-01T08:45:46;14.00;99.90
11615;DHT22;5863;52.832;4.758;2023-05-01T08:48:15;14.00;99.90
11615;DHT22;5863;52.832;4.758;2023-05-01T08:50:45;14.00;99.90
11615;DHT22;5863;52.832;4.758;2023-05-01T08:53:13;14.00;99.90
11615;DHT22;5863;52.832;4.758;2023-05-01T08:55:43;14.00;99.90
11615;DHT22;5863;52.832;4.758;2023-05-01T08:58:17;14.10;99.90
11615;DHT22;5863;52.832;4.758;2023-05-01T09:00:45;14.10;99.90
11615;DHT22;5863;52.832;4.758;2023-05-01T09:03:12;14.10;99.90
11615;DHT22;5863;52.832;4.758;2023-05-01T09:05:39;14.10;99.90
11615;DHT22;5863;52.832;4.758;2023-05-01T09:08:06;14.20;99.90
11615;DHT22;5863;52.832;4.758;2023-05-01T09:10:33;14.30;99.90
11615;DHT22;5863;52.832;4.758;2023-05-01T09:13:04;14.30;99.90
11615;DHT22;5863;52.832;4.758;2023-05-01T09:15:34;14.40;99.90
11615;DHT22;5863;52.832;4.758;2023-05-01T09:18:00;14.40;99.90
11615;DHT22;5863;52.832;4.758;2023-05-01T09:20:30;14.50;99.90
11615;DHT22;5863;52.832;4.758;2023-05-01T09:22:57;14.50;99.90
11615;DHT22;5863;52.832;4.758;2023-05-01T09:25:25;14.60;99.90
11615;DHT22;5863;52.832;4.758;2023-05-01T09:27:52;14.70;99.90
11615;DHT22;5863;52.832;4.758;2023-05-01T09:30:31;14.70;99.90
11615;DHT22;5863;52.832;4.758;2023-05-01T09:33:10;14.80;99.90
11615;DHT22;5863;52.832;4.758;2023-05-01T09:35:50;14.90;99.90
11615;DHT22;5863;52.832;4.758;2023-05-01T09:38:20;14.90;99.90
11615;DHT22;5863;52.832;4.758;2023-05-01T09:40:47;14.90;99.90
11615;DHT22;5863;52.832;4.758;2023-05-01T09:43:23;14.90;99.90
11615;DHT22;5863;52.832;4.758;2023-05-01T09:45:59;14.90;99.90
11615;DHT22;5863;52.832;4.758;2023-05-01T09:48:27;14.90;99.90
11615;DHT22;5863;52.832;4.758;2023-05-01T09:50:54;14.80;99.90
11615;DHT22;5863;52.832;4.758;2023-05-01T09:53:35;14.90;99.90
11615;DHT22;5863;52.832;4.758;2023-05-01T09:56:02;14.90;99.90
11615;DHT22;5863;52.832;4.758;2023-05-01T09:58:29;15.00;99.90
11615;DHT22;5863;52.832;4.758;2023-05-01T10:00:56;15.10;99.90
11615;DHT22;5863;52.832;4.758;2023-05-01T10:03:23;15.20;99.90
11615;DHT22;5863;52.832;4.758;2023-05-01T10:05:51;15.20;99.90
11615;DHT22;5863;52.832;4.758;2023-05-01T10:08:21;15.20;99.90
11615;DHT22;5863;52.832;4.758;2023-05-01T10:10:59;15.30;99.90
11615;DHT22;5863;52.832;4.758;2023-05-01T10:13:25;15.40;99.90
11615;DHT22;5863;52.832;4.758;2023-05-01T10:15:52;15.50;99.90
11615;DHT22;5863;52.832;4.758;2023-05-01T10:18:19;15.50;99.90
11615;DHT22;5863;52.832;4.758;2023-05-01T10:20:46;15.60;99.90
11615;DHT22;5863;52.832;4.758;2023-05-01T10:23:14;15.70;99.90
11615;DHT22;5863;52.832;4.758;2023-05-01T10:25:41;15.80;99.90
11615;DHT22;5863;52.832;4.758;2023-05-01T10:28:10;15.80;99.90
11615;DHT22;5863;52.832;4.758;2023-05-01T10:30:39;15.90;99.90
11615;DHT22;5863;52.832;4.758;2023-05-01T10:33:07;15.90;99.90
11615;DHT22;5863;52.832;4.758;2023-05-01T10:35:36;15.90;99.90
11615;DHT22;5863;52.832;4.758;2023-05-01T10:38:06;15.90;99.90
11615;DHT22;5863;52.832;4.758;2023-05-01T10:40:45;16.00;99.90
11615;DHT22;5863;52.832;4.758;2023-05-01T10:43:13;16.10;99.90
11615;DHT22;5863;52.832;4.758;2023-05-01T10:45:40;16.20;99.90
11615;DHT22;5863;52.832;4.758;2023-05-01T10:48:07;16.20;99.90
11615;DHT22;5863;52.832;4.758;2023-05-01T10:50:34;16.20;99.90
11615;DHT22;5863;52.832;4.758;2023-05-01T10:53:16;16.30;99.90
11615;DHT22;5863;52.832;4.758;2023-05-01T10:55:45;16.20;99.90
11615;DHT22;5863;52.832;4.758;2023-05-01T10:58:13;16.10;99.90
11615;DHT22;5863;52.832;4.758;2023-05-01T11:00:40;16.20;99.90
11615;DHT22;5863;52.832;4.758;2023-05-01T11:03:35;16.30;99.90
11615;DHT22;5863;52.832;4.758;2023-05-01T11:06:05;16.50;99.90
11615;DHT22;5863;52.832;4.758;2023-05-01T11:08:33;16.60;99.90
11615;DHT22;5863;52.832;4.758;2023-05-01T11:14:06;16.70;99.90
11615;DHT22;5863;52.832;4.758;2023-05-01T11:16:44;16.80;99.90
11615;DHT22;5863;52.832;4.758;2023-05-01T11:19:44;17.00;99.90
11615;DHT22;5863;52.832;4.758;2023-05-01T11:22:13;17.20;99.90
11615;DHT22;5863;52.832;4.758;2023-05-01T11:24:40;17.20;99.90
11615;DHT22;5863;52.832;4.758;2023-05-01T11:27:11;17.40;99.90
11615;DHT22;5863;52.832;4.758;2023-05-01T11:29:43;17.40;99.90
11615;DHT22;5863;52.832;4.758;2023-05-01T11:32:23;17.40;99.90
11615;DHT22;5863;52.832;4.758;2023-05-01T11:34:51;17.50;99.90
11615;DHT22;5863;52.832;4.758;2023-05-01T11:37:17;17.60;99.90
11615;DHT22;5863;52.832;4.758;2023-05-01T11:39:48;17.60;99.90
11615;DHT22;5863;52.832;4.758;2023-05-01T11:42:16;17.70;99.90
11615;DHT22;5863;52.832;4.758;2023-05-01T11:45:08;17.80;99.90
11615;DHT22;5863;52.832;4.758;2023-05-01T11:47:36;17.90;99.90
11615;DHT22;5863;52.832;4.758;2023-05-01T11:50:03;17.90;99.90
11615;DHT22;5863;52.832;4.758;2023-05-01T11:52:40;17.90;99.90
11615;DHT22;5863;52.832;4.758;2023-05-01T11:55:07;17.90;99.90
11615;DHT22;5863;52.832;4.758;2023-05-01T11:57:44;17.90;99.90
11615;DHT22;5863;52.832;4.758;2023-05-01T12:00:14;17.90;99.90
11615;DHT22;5863;52.832;4.758;2023-05-01T12:02:54;18.10;99.90
11615;DHT22;5863;52.832;4.758;2023-05-01T12:05:22;18.20;99.90
11615;DHT22;5863;52.832;4.758;2023-05-01T12:07:49;18.10;99.90
11615;DHT22;5863;52.832;4.758;2023-05-01T12:10:16;18.10;99.90
11615;DHT22;5863;52.832;4.758;2023-05-01T12:12:43;18.00;99.90
11615;DHT22;5863;52.832;4.758;2023-05-01T12:15:10;17.90;99.90
11615;DHT22;5863;52.832;4.758;2023-05-01T12:17:38;17.90;99.90
11615;DHT22;5863;52.832;4.758;2023-05-01T12:20:07;17.80;99.90
11615;DHT22;5863;52.832;4.758;2023-05-01T12:22:34;17.70;99.90
11615;DHT22;5863;52.832;4.758;2023-05-01T12:25:01;17.60;99.90
11615;DHT22;5863;52.832;4.758;2023-05-01T12:27:28;17.40;99.90
11615;DHT22;5863;52.832;4.758;2023-05-01T12:29:57;17.40;99.90
11615;DHT22;5863;52.832;4.758;2023-05-01T12:32:29;17.30;99.90
11615;DHT22;5863;52.832;4.758;2023-05-01T12:34:59;17.30;99.90
11615;DHT22;5863;52.832;4.758;2023-05-01T12:37:30;17.20;99.90
11615;DHT22;5863;52.832;4.758;2023-05-01T12:39:57;17.20;99.90
11615;DHT22;5863;52.832;4.758;2023-05-01T12:42:24;17.10;99.90
11615;DHT22;5863;52.832;4.758;2023-05-01T12:44:58;17.10;99.90
11615;DHT22;5863;52.832;4.758;2023-05-01T12:47:26;17.00;99.90
11615;DHT22;5863;52.832;4.758;2023-05-01T12:50:01;16.90;99.90
11615;DHT22;5863;52.832;4.758;2023-05-01T12:52:28;16.90;99.90
11615;DHT22;5863;52.832;4.758;2023-05-01T12:55:01;16.90;99.90
11615;DHT22;5863;52.832;4.758;2023-05-01T12:57:29;16.90;99.90
11615;DHT22;5863;52.832;4.758;2023-05-01T12:59:58;16.90;99.90
11615;DHT22;5863;52.832;4.758;2023-05-01T13:02:29;17.00;99.90
11615;DHT22;5863;52.832;4.758;2023-05-01T13:05:09;17.00;99.90
11615;DHT22;5863;52.832;4.758;2023-05-01T13:07:37;17.10;99.90
11615;DHT22;5863;52.832;4.758;2023-05-01T13:10:05;17.20;99.90
11615;DHT22;5863;52.832;4.758;2023-05-01T13:12:32;17.20;99.90
11615;DHT22;5863;52.832;4.758;2023-05-01T13:14:59;17.20;99.90
11615;DHT22;5863;52.832;4.758;2023-05-01T13:17:27;17.30;99.90
11615;DHT22;5863;52.832;4.758;2023-05-01T13:19:55;17.30;99.90
11615;DHT22;5863;52.832;4.758;2023-05-01T13:22:30;17.40;99.90
11615;DHT22;5863;52.832;4.758;2023-05-01T13:24:57;17.40;99.90
11615;DHT22;5863;52.832;4.758;2023-05-01T13:27:24;17.40;99.90
11615;DHT22;5863;52.832;4.758;2023-05-01T13:29:52;17.30;99.90
11615;DHT22;5863;52.832;4.758;2023-05-01T13:32:22;17.30;99.90
11615;DHT22;5863;52.832;4.758;2023-05-01T13:34:49;17.30;99.90
11615;DHT22;5863;52.832;4.758;2023-05-01T13:37:16;17.30;99.90
11615;DHT22;5863;52.832;4.758;2023-05-01T13:39:45;17.20;99.90
11615;DHT22;5863;52.832;4.758;2023-05-01T13:42:20;17.10;99.90
11615;DHT22;5863;52.832;4.758;2023-05-01T13:44:51;16.90;99.90
11615;DHT22;5863;52.832;4.758;2023-05-01T13:47:19;16.70;99.90
11615;DHT22;5863;52.832;4.758;2023-05-01T13:49:47;16.60;99.90
11615;DHT22;5863;52.832;4.758;2023-05-01T13:52:15;16.40;99.90
11615;DHT22;5863;52.832;4.758;2023-05-01T13:54:43;16.20;99.90
11615;DHT22;5863;52.832;4.758;2023-05-01T13:57:11;16.00;99.90
11615;DHT22;5863;52.832;4.758;2023-05-01T13:59:40;15.90;99.90
11615;DHT22;5863;52.832;4.758;2023-05-01T14:02:19;15.80;99.90
11615;DHT22;5863;52.832;4.758;2023-05-01T14:04:46;15.70;99.90
11615;DHT22;5863;52.832;4.758;2023-05-01T14:07:16;15.60;99.90
11615;DHT22;5863;52.832;4.758;2023-05-01T14:09:44;15.50;99.90
11615;DHT22;5863;52.832;4.758;2023-05-01T14:12:13;15.50;99.90
11615;DHT22;5863;52.832;4.758;2023-05-01T14:14:46;15.40;99.90
11615;DHT22;5863;52.832;4.758;2023-05-01T14:17:13;15.60;99.90
11615;DHT22;5863;52.832;4.758;2023-05-01T14:19:40;15.70;99.90
11615;DHT22;5863;52.832;4.758;2023-05-01T14:22:06;15.70;99.90
11615;DHT22;5863;52.832;4.758;2023-05-01T14:24:35;15.70;99.90
11615;DHT22;5863;52.832;4.758;2023-05-01T14:27:02;15.60;99.90
11615;DHT22;5863;52.832;4.758;2023-05-01T14:29:31;15.60;99.90
11615;DHT22;5863;52.832;4.758;2023-05-01T14:32:01;15.70;99.90
11615;DHT22;5863;52.832;4.758;2023-05-01T14:34:29;15.80;99.90
11615;DHT22;5863;52.832;4.758;2023-05-01T14:36:56;15.80;99.90
11615;DHT22;5863;52.832;4.758;2023-05-01T14:39:24;15.80;99.90
11615;DHT22;5863;52.832;4.758;2023-05-01T14:41:58;15.90;99.90
11615;DHT22;5863;52.832;4.758;2023-05-01T14:44:26;15.90;99.90
11615;DHT22;5863;52.832;4.758;2023-05-01T14:46:55;15.90;99.90
11615;DHT22;5863;52.832;4.758;2023-05-01T14:49:23;15.90;99.90
11615;DHT22;5863;52.832;4.758;2023-05-01T14:51:51;15.80;99.90
11615;DHT22;5863;52.832;4.758;2023-05-01T14:54:19;15.80;99.90
11615;DHT22;5863;52.832;4.758;2023-05-01T14:56:47;15.70;99.90
11615;DHT22;5863;52.832;4.758;2023-05-01T14:59:14;15.70;99.90
11615;DHT22;5863;52.832;4.758;2023-05-01T15:01:41;15.60;99.90
11615;DHT22;5863;52.832;4.758;2023-05-01T15:04:09;15.60;99.90
11615;DHT22;5863;52.832;4.758;2023-05-01T15:06:36;15.60;99.90
11615;DHT22;5863;52.832;4.758;2023-05-01T15:09:03;15.50;99.90
11615;DHT22;5863;52.832;4.758;2023-05-01T15:11:30;15.40;99.90
11615;DHT22;5863;52.832;4.758;2023-05-01T15:13:57;15.40;99.90
11615;DHT22;5863;52.832;4.758;2023-05-01T15:16:23;15.40;99.90
11615;DHT22;5863;52.832;4.758;2023-05-01T15:18:50;15.40;99.90
11615;DHT22;5863;52.832;4.758;2023-05-01T15:21:18;15.40;99.90
11615;DHT22;5863;52.832;4.758;2023-05-01T15:23:45;15.40;99.90
11615;DHT22;5863;52.832;4.758;2023-05-01T15:26:11;15.30;99.90
11615;DHT22;5863;52.832;4.758;2023-05-01T15:28:38;15.20;99.90
11615;DHT22;5863;52.832;4.758;2023-05-01T15:31:05;15.30;99.90
11615;DHT22;5863;52.832;4.758;2023-05-01T15:33:32;15.30;99.90
11615;DHT22;5863;52.832;4.758;2023-05-01T15:35:58;15.30;99.90
11615;DHT22;5863;52.832;4.758;2023-05-01T15:38:26;15.30;99.90
11615;DHT22;5863;52.832;4.758;2023-05-01T15:41:02;15.40;99.90
11615;DHT22;5863;52.832;4.758;2023-05-01T15:43:28;15.40;99.90
11615;DHT22;5863;52.832;4.758;2023-05-01T15:45:55;15.50;99.90
11615;DHT22;5863;52.832;4.758;2023-05-01T15:48:29;15.50;99.90
11615;DHT22;5863;52.832;4.758;2023-05-01T15:50:58;15.50;99.90
11615;DHT22;5863;52.832;4.758;2023-05-01T15:53:26;15.50;99.90
11615;DHT22;5863;52.832;4.758;2023-05-01T15:56:01;15.50;99.90
11615;DHT22;5863;52.832;4.758;2023-05-01T15:58:28;15.50;99.90
11615;DHT22;5863;52.832;4.758;2023-05-01T16:00:54;15.60;99.90
11615;DHT22;5863;52.832;4.758;2023-05-01T16:03:21;15.70;99.90